sensor_id;sensor_type;location;lat;lon;timestamp;temperature;humidity
19435;DHT22;9853;50.848;4.108;2023-12-29T00:38:43;10.60;99.90
19435;DHT22;9853;50.848;4.108;2023-12-29T00:41:57;10.50;99.90
19435;DHT22;9853;50.848;4.108;2023-12-29T00:52:02;10.70;99.90
19435;DHT22;9853;50.848;4.108;2023-12-29T00:58:35;10.70;99.90
19435;DHT22;9853;50.848;4.108;2023-12-29T01:57:02;10.90;99.90
19435;DHT22;9853;50.848;4.108;2023-12-29T06:27:17;9.50;99.90
19435;DHT22;9853;50.848;4.108;2023-12-29T06:30:21;9.40;99.90
19435;DHT22;9853;50.848;4.108;2023-12-29T06:33:16;9.50;99.90
19435;DHT22;9853;50.848;4.108;2023-12-29T06:41:59;9.50;99.90
19435;DHT22;9853;50.848;4.108;2023-12-29T06:52:00;9.60;99.90
19435;DHT22;9853;50.848;4.108;2023-12-29T06:54:44;9.50;99.90
19435;DHT22;9853;50.848;4.108;2023-12-29T06:57:52;9.50;99.90
19435;DHT22;9853;50.848;4.108;2023-12-29T07:09:51;9.60;99.90
19435;DHT22;9853;50.848;4.108;2023-12-29T07:12:42;9.60;99.90
19435;DHT22;9853;50.848;4.108;2023-12-29T07:15:06;9.50;99.90
19435;DHT22;9853;50.848;4.108;2023-12-29T07:18:06;9.50;99.90
19435;DHT22;9853;50.848;4.108;2023-12-29T07:24:21;9.70;99.90
19435;DHT22;9853;50.848;4.108;2023-12-29T07:26:58;9.70;99.90
19435;DHT22;9853;50.848;4.108;2023-12-29T07:31:55;9.80;99.90
19435;DHT22;9853;50.848;4.108;2023-12-29T07:49:31;9.70;99.90
19435;DHT22;9853;50.848;4.108;2023-12-29T08:07:39;9.70;99.90
19435;DHT22;9853;50.848;4.108;2023-12-29T08:13:27;10.00;99.90
19435;DHT22;9853;50.848;4.108;2023-12-29T08:38:38;10.40;99.90
19435;DHT22;9853;50.848;4.108;2023-12-29T09:19:01;10.70;99.90
19435;DHT22;9853;50.848;4.108;2023-12-29T09:21:31;10.70;99.90
19435;DHT22;9853;50.848;4.108;2023-12-29T09:23:32;10.60;99.90
19435;DHT22;9853;50.848;4.108;2023-12-29T09:25:59;10.60;99.90
19435;DHT22;9853;50.848;4.108;2023-12-29T09:28:29;10.50;99.90
19435;DHT22;9853;50.848;4.108;2023-12-29T09:30:35;10.60;99.90
19435;DHT22;9853;50.848;4.108;2023-12-29T09:32:48;10.60;99.90
19435;DHT22;9853;50.848;4.108;2023-12-29T09:34:49;10.60;99.90
19435;DHT22;9853;50.848;4.108;2023-12-29T09:37:08;10.60;99.90
19435;DHT22;9853;50.848;4.108;2023-12-29T09:39:10;10.60;99.90
19435;DHT22;9853;50.848;4.108;2023-12-29T09:41:14;10.50;99.90
19435;DHT22;9853;50.848;4.108;2023-12-29T09:43:19;10.60;99.90
19435;DHT22;9853;50.848;4.108;2023-12-29T09:45:46;10.50;99.90
19435;DHT22;9853;50.848;4.108;2023-12-29T09:47:58;10.60;99.90
19435;DHT22;9853;50.848;4.108;2023-12-29T09:50:02;10.60;99.90
19435;DHT22;9853;50.848;4.108;2023-12-29T09:52:06;10.70;99.90
19435;DHT22;9853;50.848;4.108;2023-12-29T09:54:13;10.60;99.90
19435;DHT22;9853;50.848;4.108;2023-12-29T09:56:21;10.60;99.90
19435;DHT22;9853;50.848;4.108;2023-12-29T09:58:58;10.70;99.90
19435;DHT22;9853;50.848;4.108;2023-12-29T10:01:04;10.80;99.90
19435;DHT22;9853;50.848;4.108;2023-12-29T10:03:21;10.90;99.90
19435;DHT22;9853;50.848;4.108;2023-12-29T10:09:49;10.90;99.90
19435;DHT22;9853;50.848;4.108;2023-12-29T11:08:49;11.20;99.90
19435;DHT22;9853;50.848;4.108;2023-12-29T11:13:52;11.20;99.90
19435;DHT22;9853;50.848;4.108;2023-12-29T11:19:35;11.20;99.90
19435;DHT22;9853;50.848;4.108;2023-12-29T11:25:26;11.30;99.90
19435;DHT22;9853;50.848;4.108;2023-12-29T11:27:29;11.30;99.90
19435;DHT22;9853;50.848;4.108;2023-12-29T11:29:31;11.20;99.90
19435;DHT22;9853;50.848;4.108;2023-12-29T11:31:32;11.30;99.90
19435;DHT22;9853;50.848;4.108;2023-12-29T11:33:41;11.30;99.90
19435;DHT22;9853;50.848;4.108;2023-12-29T11:36:00;11.30;99.90
19435;DHT22;9853;50.848;4.108;2023-12-29T11:40:30;11.20;99.90
19435;DHT22;9853;50.848;4.108;2023-12-29T11:42:35;11.10;99.90
19435;DHT22;9853;50.848;4.108;2023-12-29T11:44:39;11.20;99.90
19435;DHT22;9853;50.848;4.108;2023-12-29T11:46:44;11.20;99.90
19435;DHT22;9853;50.848;4.108;2023-12-29T11:48:59;11.20;99.90
19435;DHT22;9853;50.848;4.108;2023-12-29T11:51:44;11.20;99.90
19435;DHT22;9853;50.848;4.108;2023-12-29T11:53:45;11.30;99.90
19435;DHT22;9853;50.848;4.108;2023-12-29T11:55:47;11.30;99.90
19435;DHT22;9853;50.848;4.108;2023-12-29T11:57:58;11.30;99.90
19435;DHT22;9853;50.848;4.108;2023-12-29T12:00:00;11.30;99.90
19435;DHT22;9853;50.848;4.108;2023-12-29T12:02:27;11.20;99.90
19435;DHT22;9853;50.848;4.108;2023-12-29T12:04:42;11.10;99.90
19435;DHT22;9853;50.848;4.108;2023-12-29T12:06:44;11.00;99.90
19435;DHT22;9853;50.848;4.108;2023-12-29T12:08:45;11.00;99.90
19435;DHT22;9853;50.848;4.108;2023-12-29T12:10:46;11.00;99.90
19435;DHT22;9853;50.848;4.108;2023-12-29T12:12:47;10.90;99.90
19435;DHT22;9853;50.848;4.108;2023-12-29T12:14:53;10.90;99.90
19435;DHT22;9853;50.848;4.108;2023-12-29T12:16:54;10.80;99.90
19435;DHT22;9853;50.848;4.108;2023-12-29T12:18:55;10.80;99.90
19435;DHT22;9853;50.848;4.108;2023-12-29T12:20:57;10.70;99.90
19435;DHT22;9853;50.848;4.108;2023-12-29T12:23:01;10.70;99.90
19435;DHT22;9853;50.848;4.108;2023-12-29T12:25:02;10.70;99.90
19435;DHT22;9853;50.848;4.108;2023-12-29T12:27:09;10.70;99.90
19435;DHT22;9853;50.848;4.108;2023-12-29T12:29:13;10.90;99.90
19435;DHT22;9853;50.848;4.108;2023-12-29T12:31:14;11.00;99.90
19435;DHT22;9853;50.848;4.108;2023-12-29T12:33:15;10.90;99.90
19435;DHT22;9853;50.848;4.108;2023-12-29T12:35:16;10.70;99.90
19435;DHT22;9853;50.848;4.108;2023-12-29T12:37:21;10.70;99.90
19435;DHT22;9853;50.848;4.108;2023-12-29T12:39:22;10.70;99.90
19435;DHT22;9853;50.848;4.108;2023-12-29T12:41:25;10.60;99.90
19435;DHT22;9853;50.848;4.108;2023-12-29T12:43:26;10.60;99.90
19435;DHT22;9853;50.848;4.108;2023-12-29T12:45:28;10.60;99.90
19435;DHT22;9853;50.848;4.108;2023-12-29T12:47:44;10.60;99.90
19435;DHT22;9853;50.848;4.108;2023-12-29T12:49:47;10.70;99.90
19435;DHT22;9853;50.848;4.108;2023-12-29T12:51:49;10.70;99.90
19435;DHT22;9853;50.848;4.108;2023-12-29T12:53:50;10.80;99.90
19435;DHT22;9853;50.848;4.108;2023-12-29T12:55:52;10.80;99.90
19435;DHT22;9853;50.848;4.108;2023-12-29T12:57:55;10.80;99.90
19435;DHT22;9853;50.848;4.108;2023-12-29T12:59:59;10.80;99.90
19435;DHT22;9853;50.848;4.108;2023-12-29T13:02:02;10.90;99.90
19435;DHT22;9853;50.848;4.108;2023-12-29T13:04:12;11.10;99.90
19435;DHT22;9853;50.848;4.108;2023-12-29T13:06:13;11.10;99.90
19435;DHT22;9853;50.848;4.108;2023-12-29T13:08:14;11.10;99.90
19435;DHT22;9853;50.848;4.108;2023-12-29T13:10:22;11.10;99.90
19435;DHT22;9853;50.848;4.108;2023-12-29T13:12:26;11.10;99.90
19435;DHT22;9853;50.848;4.108;2023-12-29T13:14:27;11.10;99.90
19435;DHT22;9853;50.848;4.108;2023-12-29T13:16:33;11.10;99.90
19435;DHT22;9853;50.848;4.108;2023-12-29T13:18:34;11.20;99.90
19435;DHT22;9853;50.848;4.108;2023-12-29T13:20:50;11.10;99.90
19435;DHT22;9853;50.848;4.108;2023-12-29T13:22:53;11.00;99.90
19435;DHT22;9853;50.848;4.108;2023-12-29T13:24:55;11.00;99.90
19435;DHT22;9853;50.848;4.108;2023-12-29T13:27:05;10.90;99.90
19435;DHT22;9853;50.848;4.108;2023-12-29T13:29:06;10.90;99.90
19435;DHT22;9853;50.848;4.108;2023-12-29T13:31:12;11.10;99.90
19435;DHT22;9853;50.848;4.108;2023-12-29T13:33:31;11.00;99.90
19435;DHT22;9853;50.848;4.108;2023-12-29T13:35:38;11.00;99.90
19435;DHT22;9853;50.848;4.108;2023-12-29T13:40:16;11.10;99.90
19435;DHT22;9853;50.848;4.108;2023-12-29T13:42:19;11.20;99.90
19435;DHT22;9853;50.848;4.108;2023-12-29T13:44:21;11.10;99.90
19435;DHT22;9853;50.848;4.108;2023-12-29T13:46:23;11.20;99.90
19435;DHT22;9853;50.848;4.108;2023-12-29T13:48:27;11.10;99.90
19435;DHT22;9853;50.848;4.108;2023-12-29T13:50:39;11.10;99.90
19435;DHT22;9853;50.848;4.108;2023-12-29T13:52:41;11.00;99.90
19435;DHT22;9853;50.848;4.108;2023-12-29T13:54:44;10.90;99.90
19435;DHT22;9853;50.848;4.108;2023-12-29T13:56:52;10.90;99.90
19435;DHT22;9853;50.848;4.108;2023-12-29T13:58:54;10.90;99.90
19435;DHT22;9853;50.848;4.108;2023-12-29T14:00:58;10.90;99.90
19435;DHT22;9853;50.848;4.108;2023-12-29T14:03:05;10.90;99.90
19435;DHT22;9853;50.848;4.108;2023-12-29T14:05:18;10.90;99.90
19435;DHT22;9853;50.848;4.108;2023-12-29T14:07:25;10.90;99.90
19435;DHT22;9853;50.848;4.108;2023-12-29T14:09:29;11.00;99.90
19435;DHT22;9853;50.848;4.108;2023-12-29T14:11:35;10.90;99.90
19435;DHT22;9853;50.848;4.108;2023-12-29T14:13:53;10.90;99.90
19435;DHT22;9853;50.848;4.108;2023-12-29T14:16:04;10.90;99.90
19435;DHT22;9853;50.848;4.108;2023-12-29T14:20:33;11.00;99.90
19435;DHT22;9853;50.848;4.108;2023-12-29T14:22:35;11.00;99.90
19435;DHT22;9853;50.848;4.108;2023-12-29T14:24:36;11.00;99.90
19435;DHT22;9853;50.848;4.108;2023-12-29T14:26:42;11.10;99.90
19435;DHT22;9853;50.848;4.108;2023-12-29T14:29:09;11.10;99.90
19435;DHT22;9853;50.848;4.108;2023-12-29T14:31:10;11.20;99.90
19435;DHT22;9853;50.848;4.108;2023-12-29T14:33:14;11.30;99.90
19435;DHT22;9853;50.848;4.108;2023-12-29T14:35:15;11.20;99.90
19435;DHT22;9853;50.848;4.108;2023-12-29T14:37:21;11.10;99.90
19435;DHT22;9853;50.848;4.108;2023-12-29T14:39:22;11.10;99.90
19435;DHT22;9853;50.848;4.108;2023-12-29T14:41:24;11.30;99.90
19435;DHT22;9853;50.848;4.108;2023-12-29T14:43:25;11.20;99.90
19435;DHT22;9853;50.848;4.108;2023-12-29T14:45:28;11.20;99.90
19435;DHT22;9853;50.848;4.108;2023-12-29T14:47:32;11.20;99.90
19435;DHT22;9853;50.848;4.108;2023-12-29T14:49:35;11.20;99.90
19435;DHT22;9853;50.848;4.108;2023-12-29T14:51:39;11.10;99.90
19435;DHT22;9853;50.848;4.108;2023-12-29T14:53:43;11.00;99.90
19435;DHT22;9853;50.848;4.108;2023-12-29T14:55:45;11.10;99.90
19435;DHT22;9853;50.848;4.108;2023-12-29T14:57:48;11.20;99.90
19435;DHT22;9853;50.848;4.108;2023-12-29T14:59:55;11.10;99.90
19435;DHT22;9853;50.848;4.108;2023-12-29T15:01:56;11.10;99.90
19435;DHT22;9853;50.848;4.108;2023-12-29T15:03:57;11.00;99.90
19435;DHT22;9853;50.848;4.108;2023-12-29T15:06:00;11.00;99.90
19435;DHT22;9853;50.848;4.108;2023-12-29T15:08:04;11.00;99.90
19435;DHT22;9853;50.848;4.108;2023-12-29T15:10:06;11.10;99.90
19435;DHT22;9853;50.848;4.108;2023-12-29T15:12:07;10.90;99.90
19435;DHT22;9853;50.848;4.108;2023-12-29T15:14:10;11.00;99.90
19435;DHT22;9853;50.848;4.108;2023-12-29T15:16:25;10.90;99.90
19435;DHT22;9853;50.848;4.108;2023-12-29T15:18:26;10.90;99.90
19435;DHT22;9853;50.848;4.108;2023-12-29T15:20:30;10.90;99.90
19435;DHT22;9853;50.848;4.108;2023-12-29T15:22:34;11.00;99.90
19435;DHT22;9853;50.848;4.108;2023-12-29T15:24:35;10.90;99.90
19435;DHT22;9853;50.848;4.108;2023-12-29T15:26:35;11.00;99.90
19435;DHT22;9853;50.848;4.108;2023-12-29T15:28:36;11.00;99.90
19435;DHT22;9853;50.848;4.108;2023-12-29T15:30:39;10.90;99.90
19435;DHT22;9853;50.848;4.108;2023-12-29T15:32:52;10.90;99.90
19435;DHT22;9853;50.848;4.108;2023-12-29T15:34:53;11.00;99.90
19435;DHT22;9853;50.848;4.108;2023-12-29T15:36:54;10.90;99.90
19435;DHT22;9853;50.848;4.108;2023-12-29T15:38:58;10.90;99.90
19435;DHT22;9853;50.848;4.108;2023-12-29T15:40:59;11.00;99.90
19435;DHT22;9853;50.848;4.108;2023-12-29T15:43:11;11.00;99.90
19435;DHT22;9853;50.848;4.108;2023-12-29T15:45:12;11.00;99.90
19435;DHT22;9853;50.848;4.108;2023-12-29T15:47:19;11.00;99.90
19435;DHT22;9853;50.848;4.108;2023-12-29T15:49:20;11.10;99.90
19435;DHT22;9853;50.848;4.108;2023-12-29T15:51:21;11.10;99.90
19435;DHT22;9853;50.848;4.108;2023-12-29T15:53:22;11.10;99.90
19435;DHT22;9853;50.848;4.108;2023-12-29T15:55:23;11.10;99.90
19435;DHT22;9853;50.848;4.108;2023-12-29T15:57:27;11.00;99.90
19435;DHT22;9853;50.848;4.108;2023-12-29T15:59:28;10.90;99.90
19435;DHT22;9853;50.848;4.108;2023-12-29T16:01:31;10.90;99.90
19435;DHT22;9853;50.848;4.108;2023-12-29T16:03:33;10.90;99.90
19435;DHT22;9853;50.848;4.108;2023-12-29T16:05:41;11.00;99.90
19435;DHT22;9853;50.848;4.108;2023-12-29T16:07:42;11.00;99.90
19435;DHT22;9853;50.848;4.108;2023-12-29T16:09:46;11.00;99.90
19435;DHT22;9853;50.848;4.108;2023-12-29T16:11:47;11.00;99.90
19435;DHT22;9853;50.848;4.108;2023-12-29T16:13:53;10.90;99.90
19435;DHT22;9853;50.848;4.108;2023-12-29T16:16:03;10.90;99.90
19435;DHT22;9853;50.848;4.108;2023-12-29T16:18:07;10.80;99.90
19435;DHT22;9853;50.848;4.108;2023-12-29T16:20:08;10.80;99.90
19435;DHT22;9853;50.848;4.108;2023-12-29T16:22:12;10.80;99.90
19435;DHT22;9853;50.848;4.108;2023-12-29T16:24:13;10.90;99.90
19435;DHT22;9853;50.848;4.108;2023-12-29T16:26:28;10.90;99.90
19435;DHT22;9853;50.848;4.108;2023-12-29T16:28:29;10.90;99.90
19435;DHT22;9853;50.848;4.108;2023-12-29T16:30:42;10.90;99.90
19435;DHT22;9853;50.848;4.108;2023-12-29T16:32:54;10.90;99.90
19435;DHT22;9853;50.848;4.108;2023-12-29T16:38:05;10.90;99.90
19435;DHT22;9853;50.848;4.108;2023-12-29T16:40:06;11.00;99.90
19435;DHT22;9853;50.848;4.108;2023-12-29T16:42:12;11.00;99.90
19435;DHT22;9853;50.848;4.108;2023-12-29T16:44:20;10.90;99.90
19435;DHT22;9853;50.848;4.108;2023-12-29T16:46:24;11.00;99.90
19435;DHT22;9853;50.848;4.108;2023-12-29T16:48:44;11.00;99.90
19435;DHT22;9853;50.848;4.108;2023-12-29T16:51:03;10.90;99.90
19435;DHT22;9853;50.848;4.108;2023-12-29T16:53:21;10.90;99.90
19435;DHT22;9853;50.848;4.108;2023-12-29T16:55:24;11.00;99.90
19435;DHT22;9853;50.848;4.108;2023-12-29T16:57:25;10.90;99.90
19435;DHT22;9853;50.848;4.108;2023-12-29T16:59:29;10.90;99.90
19435;DHT22;9853;50.848;4.108;2023-12-29T17:01:30;11.00;99.90
19435;DHT22;9853;50.848;4.108;2023-12-29T17:03:43;11.00;99.90
19435;DHT22;9853;50.848;4.108;2023-12-29T17:05:48;11.10;99.90
19435;DHT22;9853;50.848;4.108;2023-12-29T17:08:15;11.00;99.90
19435;DHT22;9853;50.848;4.108;2023-12-29T17:10:35;11.00;99.90
19435;DHT22;9853;50.848;4.108;2023-12-29T17:12:45;11.10;99.90
19435;DHT22;9853;50.848;4.108;2023-12-29T17:15:18;11.10;99.90
19435;DHT22;9853;50.848;4.108;2023-12-29T17:17:32;11.00;99.90
19435;DHT22;9853;50.848;4.108;2023-12-29T17:20:20;11.00;99.90
19435;DHT22;9853;50.848;4.108;2023-12-29T17:22:41;10.90;99.90
19435;DHT22;9853;50.848;4.108;2023-12-29T17:24:55;10.90;99.90
19435;DHT22;9853;50.848;4.108;2023-12-29T17:27:22;10.90;99.90
19435;DHT22;9853;50.848;4.108;2023-12-29T17:29:35;10.90;99.90
19435;DHT22;9853;50.848;4.108;2023-12-29T17:31:40;10.90;99.90
19435;DHT22;9853;50.848;4.108;2023-12-29T17:33:41;10.90;99.90
19435;DHT22;9853;50.848;4.108;2023-12-29T17:35:42;10.90;99.90
19435;DHT22;9853;50.848;4.108;2023-12-29T17:37:43;10.90;99.90
19435;DHT22;9853;50.848;4.108;2023-12-29T17:39:44;10.80;99.90
19435;DHT22;9853;50.848;4.108;2023-12-29T17:41:44;10.70;99.90
19435;DHT22;9853;50.848;4.108;2023-12-29T17:43:45;10.80;99.90
19435;DHT22;9853;50.848;4.108;2023-12-29T17:45:47;10.80;99.90
19435;DHT22;9853;50.848;4.108;2023-12-29T17:47:48;10.80;99.90
19435;DHT22;9853;50.848;4.108;2023-12-29T17:49:50;11.00;99.90
19435;DHT22;9853;50.848;4.108;2023-12-29T17:51:51;11.00;99.90
19435;DHT22;9853;50.848;4.108;2023-12-29T17:53:52;11.00;99.90
19435;DHT22;9853;50.848;4.108;2023-12-29T17:55:53;10.90;99.90
19435;DHT22;9853;50.848;4.108;2023-12-29T17:57:54;10.80;99.90
19435;DHT22;9853;50.848;4.108;2023-12-29T17:59:55;10.80;99.90
19435;DHT22;9853;50.848;4.108;2023-12-29T18:01:56;10.80;99.90
19435;DHT22;9853;50.848;4.108;2023-12-29T18:03:57;10.90;99.90
19435;DHT22;9853;50.848;4.108;2023-12-29T18:06:02;10.90;99.90
19435;DHT22;9853;50.848;4.108;2023-12-29T18:08:04;10.90;99.90
19435;DHT22;9853;50.848;4.108;2023-12-29T18:10:05;10.90;99.90
19435;DHT22;9853;50.848;4.108;2023-12-29T18:12:08;10.90;99.90
19435;DHT22;9853;50.848;4.108;2023-12-29T18:14:09;10.90;99.90
19435;DHT22;9853;50.848;4.108;2023-12-29T18:16:10;10.80;99.90
19435;DHT22;9853;50.848;4.108;2023-12-29T18:18:11;10.90;99.90
19435;DHT22;9853;50.848;4.108;2023-12-29T18:20:14;10.90;99.90
19435;DHT22;9853;50.848;4.108;2023-12-29T18:22:17;11.00;99.90
19435;DHT22;9853;50.848;4.108;2023-12-29T18:24:18;11.00;99.90
19435;DHT22;9853;50.848;4.108;2023-12-29T18:26:19;11.00;99.90
19435;DHT22;9853;50.848;4.108;2023-12-29T18:28:20;11.00;99.90
19435;DHT22;9853;50.848;4.108;2023-12-29T18:30:21;11.00;99.90
19435;DHT22;9853;50.848;4.108;2023-12-29T18:32:21;11.00;99.90
19435;DHT22;9853;50.848;4.108;2023-12-29T18:34:22;11.00;99.90
19435;DHT22;9853;50.848;4.108;2023-12-29T18:36:23;10.90;99.90
19435;DHT22;9853;50.848;4.108;2023-12-29T18:38:24;10.80;99.90
19435;DHT22;9853;50.848;4.108;2023-12-29T18:40:25;10.80;99.90
19435;DHT22;9853;50.848;4.108;2023-12-29T18:42:26;10.80;99.90
19435;DHT22;9853;50.848;4.108;2023-12-29T18:44:27;10.70;99.90
19435;DHT22;9853;50.848;4.108;2023-12-29T18:46:29;10.70;99.90
19435;DHT22;9853;50.848;4.108;2023-12-29T18:48:31;10.60;99.90
19435;DHT22;9853;50.848;4.108;2023-12-29T18:50:32;10.60;99.90
19435;DHT22;9853;50.848;4.108;2023-12-29T18:52:33;10.60;99.90
19435;DHT22;9853;50.848;4.108;2023-12-29T18:54:34;10.50;99.90
19435;DHT22;9853;50.848;4.108;2023-12-29T18:56:35;10.50;99.90
19435;DHT22;9853;50.848;4.108;2023-12-29T18:58:36;10.50;99.90
19435;DHT22;9853;50.848;4.108;2023-12-29T19:00:37;10.50;99.90
19435;DHT22;9853;50.848;4.108;2023-12-29T19:02:37;10.50;99.90
19435;DHT22;9853;50.848;4.108;2023-12-29T19:04:39;10.50;99.90
19435;DHT22;9853;50.848;4.108;2023-12-29T19:06:40;10.50;99.90
19435;DHT22;9853;50.848;4.108;2023-12-29T19:08:41;10.50;99.90
19435;DHT22;9853;50.848;4.108;2023-12-29T19:10:41;10.50;99.90
19435;DHT22;9853;50.848;4.108;2023-12-29T19:12:42;10.50;99.90
19435;DHT22;9853;50.848;4.108;2023-12-29T19:14:47;10.40;99.90
19435;DHT22;9853;50.848;4.108;2023-12-29T19:16:52;10.40;99.90
19435;DHT22;9853;50.848;4.108;2023-12-29T19:18:53;10.30;99.90
19435;DHT22;9853;50.848;4.108;2023-12-29T19:20:54;10.30;99.90
19435;DHT22;9853;50.848;4.108;2023-12-29T19:22:55;10.30;99.90
19435;DHT22;9853;50.848;4.108;2023-12-29T19:24:56;10.40;99.90
19435;DHT22;9853;50.848;4.108;2023-12-29T19:26:57;10.40;99.90
19435;DHT22;9853;50.848;4.108;2023-12-29T19:28:57;10.30;99.90
19435;DHT22;9853;50.848;4.108;2023-12-29T19:30:58;10.30;99.90
19435;DHT22;9853;50.848;4.108;2023-12-29T19:32:59;10.30;99.90
19435;DHT22;9853;50.848;4.108;2023-12-29T19:35:00;10.30;99.90
19435;DHT22;9853;50.848;4.108;2023-12-29T19:37:02;10.30;99.90
19435;DHT22;9853;50.848;4.108;2023-12-29T19:39:04;10.30;99.90
19435;DHT22;9853;50.848;4.108;2023-12-29T19:41:06;10.30;99.90
19435;DHT22;9853;50.848;4.108;2023-12-29T19:43:07;10.40;99.90
19435;DHT22;9853;50.848;4.108;2023-12-29T19:45:08;10.50;99.90
19435;DHT22;9853;50.848;4.108;2023-12-29T19:47:09;10.40;99.90
19435;DHT22;9853;50.848;4.108;2023-12-29T19:49:12;10.40;99.90
19435;DHT22;9853;50.848;4.108;2023-12-29T19:51:13;10.40;99.90
19435;DHT22;9853;50.848;4.108;2023-12-29T19:53:14;10.50;99.90
19435;DHT22;9853;50.848;4.108;2023-12-29T19:55:15;10.60;99.90
19435;DHT22;9853;50.848;4.108;2023-12-29T19:57:16;10.70;99.90
19435;DHT22;9853;50.848;4.108;2023-12-29T19:59:17;10.70;99.90
19435;DHT22;9853;50.848;4.108;2023-12-29T20:01:18;10.70;99.90
19435;DHT22;9853;50.848;4.108;2023-12-29T20:03:21;10.70;99.90
19435;DHT22;9853;50.848;4.108;2023-12-29T20:05:21;10.60;99.90
19435;DHT22;9853;50.848;4.108;2023-12-29T20:07:24;10.50;99.90
19435;DHT22;9853;50.848;4.108;2023-12-29T20:09:27;10.50;99.90
19435;DHT22;9853;50.848;4.108;2023-12-29T20:11:28;10.30;99.90
19435;DHT22;9853;50.848;4.108;2023-12-29T20:13:29;10.20;99.90
19435;DHT22;9853;50.848;4.108;2023-12-29T20:15:30;10.20;99.90
19435;DHT22;9853;50.848;4.108;2023-12-29T20:17:31;10.10;99.90
19435;DHT22;9853;50.848;4.108;2023-12-29T20:19:32;10.10;99.90
19435;DHT22;9853;50.848;4.108;2023-12-29T20:21:33;10.10;99.90
19435;DHT22;9853;50.848;4.108;2023-12-29T20:23:34;10.10;99.90
19435;DHT22;9853;50.848;4.108;2023-12-29T20:25:36;10.00;99.90
19435;DHT22;9853;50.848;4.108;2023-12-29T20:27:39;10.00;99.90
19435;DHT22;9853;50.848;4.108;2023-12-29T20:29:40;10.00;99.90
19435;DHT22;9853;50.848;4.108;2023-12-29T20:31:41;9.90;99.90
19435;DHT22;9853;50.848;4.108;2023-12-29T20:33:43;10.00;99.90
19435;DHT22;9853;50.848;4.108;2023-12-29T20:35:44;9.90;99.90
19435;DHT22;9853;50.848;4.108;2023-12-29T20:37:45;9.90;99.90
19435;DHT22;9853;50.848;4.108;2023-12-29T20:39:45;9.90;99.90
19435;DHT22;9853;50.848;4.108;2023-12-29T20:41:46;9.80;99.90
19435;DHT22;9853;50.848;4.108;2023-12-29T20:43:47;9.90;99.90
19435;DHT22;9853;50.848;4.108;2023-12-29T20:45:51;9.90;99.90
19435;DHT22;9853;50.848;4.108;2023-12-29T20:47:54;10.00;99.90
19435;DHT22;9853;50.848;4.108;2023-12-29T20:49:54;10.00;99.90
19435;DHT22;9853;50.848;4.108;2023-12-29T20:51:55;10.00;99.90
19435;DHT22;9853;50.848;4.108;2023-12-29T20:53:56;9.90;99.90
19435;DHT22;9853;50.848;4.108;2023-12-29T20:55:57;10.00;99.90
19435;DHT22;9853;50.848;4.108;2023-12-29T20:57:58;10.00;99.90
19435;DHT22;9853;50.848;4.108;2023-12-29T21:00:00;10.10;99.90
19435;DHT22;9853;50.848;4.108;2023-12-29T21:02:01;10.10;99.90
19435;DHT22;9853;50.848;4.108;2023-12-29T21:04:05;10.10;99.90
19435;DHT22;9853;50.848;4.108;2023-12-29T21:06:14;10.20;99.90
19435;DHT22;9853;50.848;4.108;2023-12-29T21:08:15;10.10;99.90
19435;DHT22;9853;50.848;4.108;2023-12-29T21:10:17;10.00;99.90
19435;DHT22;9853;50.848;4.108;2023-12-29T21:12:20;10.10;99.90
19435;DHT22;9853;50.848;4.108;2023-12-29T21:14:21;10.10;99.90
19435;DHT22;9853;50.848;4.108;2023-12-29T21:16:22;10.20;99.90
19435;DHT22;9853;50.848;4.108;2023-12-29T21:18:23;10.20;99.90
19435;DHT22;9853;50.848;4.108;2023-12-29T21:20:23;10.20;99.90
19435;DHT22;9853;50.848;4.108;2023-12-29T21:22:24;10.20;99.90
19435;DHT22;9853;50.848;4.108;2023-12-29T21:24:25;10.30;99.90
19435;DHT22;9853;50.848;4.108;2023-12-29T21:26:27;10.30;99.90
19435;DHT22;9853;50.848;4.108;2023-12-29T21:28:28;10.30;99.90
19435;DHT22;9853;50.848;4.108;2023-12-29T21:30:30;10.30;99.90
19435;DHT22;9853;50.848;4.108;2023-12-29T21:32:30;10.20;99.90
19435;DHT22;9853;50.848;4.108;2023-12-29T21:34:34;10.20;99.90
19435;DHT22;9853;50.848;4.108;2023-12-29T21:36:34;10.10;99.90
19435;DHT22;9853;50.848;4.108;2023-12-29T21:38:35;10.20;99.90
19435;DHT22;9853;50.848;4.108;2023-12-29T21:40:36;10.10;99.90
19435;DHT22;9853;50.848;4.108;2023-12-29T21:42:37;10.10;99.90
19435;DHT22;9853;50.848;4.108;2023-12-29T21:44:38;10.00;99.90
19435;DHT22;9853;50.848;4.108;2023-12-29T21:46:42;10.00;99.90
19435;DHT22;9853;50.848;4.108;2023-12-29T21:48:42;10.00;99.90
19435;DHT22;9853;50.848;4.108;2023-12-29T21:50:43;9.90;99.90
19435;DHT22;9853;50.848;4.108;2023-12-29T21:52:45;9.90;99.90
19435;DHT22;9853;50.848;4.108;2023-12-29T21:54:47;9.80;99.90
19435;DHT22;9853;50.848;4.108;2023-12-29T21:56:48;9.80;99.90
19435;DHT22;9853;50.848;4.108;2023-12-29T21:58:49;10.00;99.90
19435;DHT22;9853;50.848;4.108;2023-12-29T22:00:54;9.90;99.90
19435;DHT22;9853;50.848;4.108;2023-12-29T22:02:56;10.00;99.90
19435;DHT22;9853;50.848;4.108;2023-12-29T22:04:57;9.80;99.90
19435;DHT22;9853;50.848;4.108;2023-12-29T22:06:58;9.80;99.90
19435;DHT22;9853;50.848;4.108;2023-12-29T22:08:59;9.90;99.90
19435;DHT22;9853;50.848;4.108;2023-12-29T22:11:01;9.90;99.90
19435;DHT22;9853;50.848;4.108;2023-12-29T22:13:04;9.80;99.90
19435;DHT22;9853;50.848;4.108;2023-12-29T22:15:05;9.80;99.90
19435;DHT22;9853;50.848;4.108;2023-12-29T22:17:06;9.70;99.90
19435;DHT22;9853;50.848;4.108;2023-12-29T22:19:08;9.60;99.90
19435;DHT22;9853;50.848;4.108;2023-12-29T22:21:16;9.70;99.90
19435;DHT22;9853;50.848;4.108;2023-12-29T22:23:16;9.70;99.90
19435;DHT22;9853;50.848;4.108;2023-12-29T22:25:17;9.70;99.90
19435;DHT22;9853;50.848;4.108;2023-12-29T22:27:18;9.70;99.90
19435;DHT22;9853;50.848;4.108;2023-12-29T22:29:19;9.80;99.90
19435;DHT22;9853;50.848;4.108;2023-12-29T22:31:20;9.70;99.90
19435;DHT22;9853;50.848;4.108;2023-12-29T22:33:21;9.70;99.90
19435;DHT22;9853;50.848;4.108;2023-12-29T22:35:22;9.80;99.90
19435;DHT22;9853;50.848;4.108;2023-12-29T22:37:23;9.80;99.90
19435;DHT22;9853;50.848;4.108;2023-12-29T22:39:24;9.70;99.90
19435;DHT22;9853;50.848;4.108;2023-12-29T22:41:25;9.70;99.90
19435;DHT22;9853;50.848;4.108;2023-12-29T22:43:26;9.70;99.90
19435;DHT22;9853;50.848;4.108;2023-12-29T22:45:26;9.70;99.90
19435;DHT22;9853;50.848;4.108;2023-12-29T22:47:31;9.60;99.90
19435;DHT22;9853;50.848;4.108;2023-12-29T22:49:34;9.60;99.90
19435;DHT22;9853;50.848;4.108;2023-12-29T22:51:35;9.60;99.90
19435;DHT22;9853;50.848;4.108;2023-12-29T22:53:36;9.60;99.90
19435;DHT22;9853;50.848;4.108;2023-12-29T22:55:37;9.60;99.90
19435;DHT22;9853;50.848;4.108;2023-12-29T22:57:38;9.50;99.90
19435;DHT22;9853;50.848;4.108;2023-12-29T22:59:39;9.50;99.90
19435;DHT22;9853;50.848;4.108;2023-12-29T23:01:40;9.50;99.90
19435;DHT22;9853;50.848;4.108;2023-12-29T23:03:40;9.60;99.90
19435;DHT22;9853;50.848;4.108;2023-12-29T23:05:41;9.60;99.90
19435;DHT22;9853;50.848;4.108;2023-12-29T23:07:43;9.60;99.90
19435;DHT22;9853;50.848;4.108;2023-12-29T23:09:43;9.70;99.90
19435;DHT22;9853;50.848;4.108;2023-12-29T23:11:44;9.70;99.90
19435;DHT22;9853;50.848;4.108;2023-12-29T23:13:45;9.60;99.90